createdAt,value
2023-09-17T00:00:20.925Z,18.50
2023-09-17T00:02:47.828Z,18.50
2023-09-17T00:05:14.893Z,18.40
2023-09-17T00:07:43.017Z,18.40
2023-09-17T00:10:10.756Z,18.30
2023-09-17T00:12:37.760Z,18.20
2023-09-17T00:15:05.202Z,18.20
2023-09-17T00:17:31.968Z,18.10
2023-09-17T00:19:58.811Z,18.10
2023-09-17T00:22:25.918Z,18.10
2023-09-17T00:24:52.683Z,18.00
2023-09-17T00:27:19.392Z,18.10
2023-09-17T00:29:46.148Z,18.00
2023-09-17T00:32:12.945Z,18.00
2023-09-17T00:34:39.795Z,18.00
2023-09-17T00:37:08.667Z,18.10
2023-09-17T00:39:35.360Z,18.10
2023-09-17T00:42:02.184Z,18.20
2023-09-17T00:44:29.049Z,18.20
2023-09-17T00:46:57.265Z,18.20
2023-09-17T00:49:24.432Z,18.20
2023-09-17T00:51:51.293Z,18.20
2023-09-17T00:54:18.346Z,18.10
2023-09-17T00:56:45.413Z,18.10
2023-09-17T00:59:12.190Z,18.10
2023-09-17T01:01:39.036Z,18.10
2023-09-17T01:04:08.961Z,18.10
2023-09-17T01:06:38.849Z,18.10
2023-09-17T01:09:06.784Z,18.10
2023-09-17T01:11:33.965Z,18.00
2023-09-17T01:14:11.194Z,18.00
2023-09-17T01:16:37.986Z,18.00
2023-09-17T01:19:05.163Z,18.00
2023-09-17T01:21:39.406Z,18.00
2023-09-17T01:24:24.722Z,18.00
2023-09-17T01:27:04.915Z,18.00
2023-09-17T01:29:33.334Z,18.00
2023-09-17T01:32:00.177Z,18.00
2023-09-17T01:34:29.584Z,18.00
2023-09-17T01:37:00.530Z,18.00
2023-09-17T01:39:32.603Z,17.90
2023-09-17T01:42:02.099Z,18.00
2023-09-17T01:44:30.706Z,18.00
2023-09-17T01:47:01.511Z,18.00
2023-09-17T01:49:33.341Z,18.10
2023-09-17T01:52:00.269Z,18.20
2023-09-17T01:54:27.203Z,18.20
2023-09-17T01:56:53.986Z,18.20
2023-09-17T01:59:20.629Z,18.20
2023-09-17T02:01:47.456Z,18.20
2023-09-17T02:04:14.217Z,18.20
2023-09-17T02:06:42.041Z,18.20
2023-09-17T02:09:12.546Z,18.10
2023-09-17T02:11:40.034Z,18.10
2023-09-17T02:14:06.701Z,18.10
2023-09-17T02:16:33.413Z,18.10
2023-09-17T02:19:00.532Z,18.00
2023-09-17T02:21:27.308Z,18.00
2023-09-17T02:23:55.955Z,18.00
2023-09-17T02:26:22.877Z,18.00
2023-09-17T02:28:50.496Z,17.90
2023-09-17T02:31:17.266Z,17.80
2023-09-17T02:33:44.725Z,17.70
2023-09-17T02:36:12.471Z,17.60
2023-09-17T02:38:39.153Z,17.50
2023-09-17T02:41:05.825Z,17.40
2023-09-17T02:43:32.632Z,17.30
2023-09-17T02:45:59.424Z,17.30
2023-09-17T02:48:26.088Z,17.30
2023-09-17T02:50:52.766Z,17.30
2023-09-17T02:53:21.489Z,17.40
2023-09-17T02:55:48.487Z,17.40
2023-09-17T02:58:16.255Z,17.50
2023-09-17T03:00:44.633Z,17.50
2023-09-17T03:03:12.305Z,17.50
2023-09-17T03:05:39.341Z,17.50
2023-09-17T03:08:10.386Z,17.50
2023-09-17T03:10:43.770Z,17.50
2023-09-17T03:13:11.569Z,17.60
2023-09-17T03:15:38.293Z,17.60
2023-09-17T03:18:05.569Z,17.60
2023-09-17T03:20:34.817Z,17.60
2023-09-17T03:23:05.722Z,17.70
2023-09-17T03:25:32.755Z,17.70
2023-09-17T03:28:00.755Z,17.70
2023-09-17T03:30:28.456Z,17.60
2023-09-17T03:33:04.383Z,17.60
2023-09-17T03:35:31.424Z,17.60
2023-09-17T03:37:58.194Z,17.50
2023-09-17T03:40:25.882Z,17.50
2023-09-17T03:42:53.278Z,17.50
2023-09-17T03:45:20.064Z,17.50
2023-09-17T03:47:48.561Z,17.40
2023-09-17T03:50:20.831Z,17.40
2023-09-17T03:52:50.602Z,17.40
2023-09-17T03:55:17.727Z,17.40
2023-09-17T03:57:45.985Z,17.40
2023-09-17T04:00:15.910Z,17.40
2023-09-17T04:02:43.470Z,17.30
2023-09-17T04:05:12.515Z,17.20
2023-09-17T04:07:42.031Z,17.20
2023-09-17T04:10:09.279Z,17.20
2023-09-17T04:12:41.218Z,17.00
2023-09-17T04:15:19.053Z,17.00
2023-09-17T04:17:47.175Z,17.00
2023-09-17T04:20:15.906Z,16.90
2023-09-17T04:22:43.846Z,16.90
2023-09-17T04:25:11.965Z,16.90
2023-09-17T04:27:42.696Z,16.90
2023-09-17T04:30:10.606Z,16.90
2023-09-17T04:32:42.421Z,16.80
2023-09-17T04:35:10.294Z,16.80
2023-09-17T04:37:38.372Z,16.80
2023-09-17T04:40:10.609Z,16.80
2023-09-17T04:42:37.483Z,16.70
2023-09-17T04:45:05.355Z,16.70
2023-09-17T04:47:35.972Z,16.60
2023-09-17T04:50:09.242Z,16.70
2023-09-17T04:52:37.406Z,16.60
2023-09-17T04:55:05.564Z,16.70
2023-09-17T04:57:32.491Z,16.70
2023-09-17T05:00:02.519Z,16.70
2023-09-17T05:02:29.364Z,16.70
2023-09-17T05:04:56.363Z,16.70
2023-09-17T05:07:23.102Z,16.80
2023-09-17T05:09:49.826Z,16.80
2023-09-17T05:12:16.552Z,16.90
2023-09-17T05:14:44.080Z,16.90
2023-09-17T05:17:10.968Z,17.00
2023-09-17T05:19:37.698Z,17.10
2023-09-17T05:22:04.626Z,17.20
2023-09-17T05:24:31.349Z,17.30
2023-09-17T05:26:57.992Z,17.40
2023-09-17T05:29:24.907Z,17.50
2023-09-17T05:31:51.719Z,17.60
2023-09-17T05:34:20.666Z,17.70
2023-09-17T05:36:47.441Z,17.80
2023-09-17T05:39:14.309Z,17.90
2023-09-17T05:41:41.079Z,18.10
2023-09-17T05:44:07.906Z,18.20
2023-09-17T05:46:34.849Z,18.30
2023-09-17T05:49:01.639Z,18.40
2023-09-17T05:51:28.471Z,18.60
2023-09-17T05:53:55.368Z,18.80
2023-09-17T05:56:22.111Z,18.90
2023-09-17T05:58:48.910Z,18.90
2023-09-17T06:01:16.365Z,19.00
2023-09-17T06:03:43.205Z,19.10
2023-09-17T06:06:09.975Z,19.20
2023-09-17T06:08:36.790Z,19.30
2023-09-17T06:11:03.527Z,19.50
2023-09-17T06:13:30.483Z,19.60
2023-09-17T06:15:57.431Z,19.60
2023-09-17T06:18:24.217Z,19.70
2023-09-17T06:20:51.328Z,19.80
2023-09-17T06:23:17.994Z,19.80
2023-09-17T06:25:44.819Z,19.80
2023-09-17T06:28:11.611Z,19.80
2023-09-17T06:30:38.401Z,19.90
2023-09-17T06:33:06.083Z,19.90
2023-09-17T06:35:32.906Z,20.00
2023-09-17T06:37:59.657Z,20.10
2023-09-17T06:40:26.448Z,20.20
2023-09-17T06:42:53.445Z,20.20
2023-09-17T06:45:20.304Z,20.30
2023-09-17T06:47:48.175Z,20.30
2023-09-17T06:50:15.047Z,20.50
2023-09-17T06:52:41.829Z,20.60
2023-09-17T06:55:08.692Z,20.80
2023-09-17T06:57:36.323Z,20.90
2023-09-17T07:00:05.060Z,21.00
2023-09-17T07:02:31.768Z,21.10
2023-09-17T07:05:01.578Z,21.30
2023-09-17T07:07:28.479Z,21.40
2023-09-17T07:09:55.595Z,21.60
2023-09-17T07:12:22.405Z,21.70
2023-09-17T07:14:49.117Z,21.80
2023-09-17T07:17:17.636Z,21.90
2023-09-17T07:19:45.042Z,22.00
2023-09-17T07:22:15.944Z,22.10
2023-09-17T07:24:43.292Z,22.00
2023-09-17T07:27:10.142Z,22.10
2023-09-17T07:29:36.973Z,22.00
2023-09-17T07:32:04.553Z,22.10
2023-09-17T07:34:32.230Z,22.10
2023-09-17T07:37:01.146Z,22.10
2023-09-17T07:39:28.228Z,22.20
2023-09-17T07:41:54.970Z,22.30
2023-09-17T07:44:21.893Z,22.40
2023-09-17T07:46:48.694Z,22.40
2023-09-17T07:49:15.496Z,22.60
2023-09-17T07:51:42.235Z,22.70
2023-09-17T07:54:09.688Z,22.80
2023-09-17T07:56:36.438Z,22.90
2023-09-17T07:59:03.342Z,23.00
2023-09-17T08:01:30.819Z,23.10
2023-09-17T08:03:58.388Z,23.30
2023-09-17T08:06:26.641Z,23.50
2023-09-17T08:08:53.476Z,23.60
2023-09-17T08:11:20.657Z,23.60
2023-09-17T08:13:49.139Z,23.60
2023-09-17T08:16:16.496Z,23.70
2023-09-17T08:18:43.481Z,23.90
2023-09-17T08:21:10.203Z,23.90
2023-09-17T08:23:36.929Z,23.90
2023-09-17T08:26:05.977Z,23.80
2023-09-17T08:28:32.984Z,23.80
2023-09-17T08:30:59.962Z,23.80
2023-09-17T08:33:26.661Z,23.90
2023-09-17T08:35:53.364Z,24.00
2023-09-17T08:38:20.276Z,24.10
2023-09-17T08:40:47.785Z,24.20
2023-09-17T08:43:15.698Z,24.30
2023-09-17T08:45:43.514Z,24.40
2023-09-17T08:48:10.470Z,24.50
2023-09-17T08:50:38.983Z,24.50
2023-09-17T08:53:10.679Z,24.40
2023-09-17T08:55:37.521Z,24.50
2023-09-17T08:58:16.745Z,24.30
2023-09-17T09:00:50.711Z,24.40
2023-09-17T09:03:21.488Z,24.60
2023-09-17T09:05:50.982Z,24.40
2023-09-17T09:08:18.614Z,24.50
2023-09-17T09:10:45.575Z,24.50
2023-09-17T09:13:12.638Z,24.60
2023-09-17T09:15:39.396Z,24.70
2023-09-17T09:18:06.456Z,24.70
2023-09-17T09:20:33.621Z,24.60
2023-09-17T09:23:01.693Z,24.50
2023-09-17T09:25:29.818Z,24.50
2023-09-17T09:28:01.237Z,24.50
2023-09-17T09:30:29.440Z,24.70
2023-09-17T09:32:57.419Z,24.80
2023-09-17T09:35:25.213Z,24.70
2023-09-17T09:37:54.517Z,25.00
2023-09-17T09:40:22.815Z,25.40
2023-09-17T09:42:50.107Z,25.40
2023-09-17T09:45:17.004Z,25.60
2023-09-17T09:47:51.066Z,25.80
2023-09-17T09:50:26.008Z,26.10
2023-09-17T09:52:53.603Z,26.10
2023-09-17T09:55:28.552Z,26.30
2023-09-17T09:57:56.130Z,26.40
2023-09-17T10:00:30.597Z,26.70
2023-09-17T10:02:58.013Z,26.90
2023-09-17T10:05:43.996Z,27.00
2023-09-17T10:08:12.427Z,27.10
2023-09-17T10:10:40.430Z,27.20
2023-09-17T10:13:08.767Z,27.20
2023-09-17T10:15:40.979Z,27.30
2023-09-17T10:18:11.761Z,27.40
2023-09-17T10:20:39.950Z,27.50
2023-09-17T10:23:07.482Z,27.50
2023-09-17T10:25:35.857Z,27.60
2023-09-17T10:28:04.068Z,27.70
2023-09-17T10:30:32.024Z,27.50
2023-09-17T10:33:01.209Z,27.40
2023-09-17T10:35:30.160Z,27.50
2023-09-17T10:37:59.512Z,27.60
2023-09-17T10:40:27.976Z,27.70
2023-09-17T10:42:56.915Z,27.60
2023-09-17T10:45:26.642Z,27.80
2023-09-17T10:47:56.024Z,27.90
2023-09-17T10:50:24.289Z,28.00
2023-09-17T10:52:53.052Z,28.10
2023-09-17T10:55:23.101Z,28.10
2023-09-17T10:58:02.090Z,27.90
2023-09-17T11:00:34.292Z,27.60
2023-09-17T11:03:05.906Z,27.10
2023-09-17T11:05:33.563Z,27.20
2023-09-17T11:08:04.155Z,27.20
2023-09-17T11:10:32.832Z,26.80
2023-09-17T11:13:00.275Z,27.00
2023-09-17T11:15:27.290Z,27.40
2023-09-17T11:18:01.034Z,27.00
2023-09-17T11:20:28.015Z,27.20
2023-09-17T11:22:54.901Z,27.40
2023-09-17T11:25:40.636Z,27.60
2023-09-17T11:28:14.656Z,27.20
2023-09-17T11:31:03.467Z,27.40
2023-09-17T11:33:30.851Z,27.70
2023-09-17T11:36:00.115Z,27.70
2023-09-17T11:38:28.332Z,27.80
2023-09-17T11:41:29.308Z,28.00
2023-09-17T11:43:56.070Z,28.20
2023-09-17T11:46:23.893Z,28.20
2023-09-17T11:48:50.662Z,28.20
2023-09-17T11:51:23.571Z,28.00
2023-09-17T11:54:16.418Z,27.50
2023-09-17T11:56:49.005Z,27.40
2023-09-17T11:59:18.029Z,27.10
2023-09-17T12:01:51.837Z,27.20
2023-09-17T12:04:19.477Z,27.50
2023-09-17T12:06:51.658Z,27.90
2023-09-17T12:09:39.698Z,28.00
2023-09-17T12:12:07.708Z,28.00
2023-09-17T12:14:35.313Z,28.10
2023-09-17T12:17:03.052Z,28.00
2023-09-17T12:19:30.591Z,28.00
2023-09-17T12:22:00.281Z,28.00
2023-09-17T12:24:37.054Z,28.40
2023-09-17T12:27:33.237Z,28.30
2023-09-17T12:30:00.557Z,28.00
2023-09-17T12:32:31.461Z,27.80
2023-09-17T12:34:58.717Z,28.30
2023-09-17T12:37:30.031Z,28.00
2023-09-17T12:39:57.648Z,27.90
2023-09-17T12:42:24.548Z,28.10
2023-09-17T12:44:52.215Z,28.00
2023-09-17T12:47:20.443Z,28.50
2023-09-17T12:49:47.345Z,28.50
2023-09-17T12:52:14.623Z,28.50
2023-09-17T12:54:41.546Z,28.60
2023-09-17T12:57:08.352Z,29.00
2023-09-17T12:59:38.739Z,29.20
2023-09-17T13:02:07.383Z,29.40
2023-09-17T13:04:37.322Z,29.80
2023-09-17T13:07:18.508Z,30.00
2023-09-17T13:09:46.556Z,30.30
2023-09-17T13:12:18.031Z,30.10
2023-09-17T13:14:44.747Z,29.80
2023-09-17T13:17:11.568Z,29.60
2023-09-17T13:19:38.922Z,29.10
2023-09-17T13:22:05.869Z,29.20
2023-09-17T13:24:34.207Z,29.30
2023-09-17T13:27:04.497Z,29.30
2023-09-17T13:29:39.086Z,29.40
2023-09-17T13:32:10.919Z,29.40
2023-09-17T13:34:41.337Z,29.70
2023-09-17T13:37:09.572Z,29.60
2023-09-17T13:39:43.910Z,29.40
2023-09-17T13:42:11.084Z,29.20
2023-09-17T13:44:38.286Z,29.10
2023-09-17T13:47:09.306Z,29.30
2023-09-17T13:49:36.296Z,29.30
2023-09-17T13:52:04.526Z,29.30
2023-09-17T13:54:31.389Z,29.30
2023-09-17T13:56:58.377Z,29.50
2023-09-17T13:59:25.134Z,29.50
2023-09-17T14:01:51.889Z,29.40
2023-09-17T14:04:18.681Z,29.30
2023-09-17T14:06:45.413Z,29.00
2023-09-17T14:09:12.115Z,29.00
2023-09-17T14:11:39.436Z,29.00
2023-09-17T14:14:06.281Z,28.90
2023-09-17T14:16:33.065Z,28.90
2023-09-17T14:18:59.766Z,28.80
2023-09-17T14:21:26.453Z,28.50
2023-09-17T14:23:53.144Z,28.40
2023-09-17T14:26:20.411Z,28.40
2023-09-17T14:28:47.137Z,28.70
2023-09-17T14:31:13.942Z,28.70
2023-09-17T14:33:41.651Z,28.50
2023-09-17T14:36:09.299Z,28.70
2023-09-17T14:38:36.132Z,28.70
2023-09-17T14:41:02.852Z,28.60
2023-09-17T14:43:30.387Z,28.50
2023-09-17T14:45:58.242Z,28.30
2023-09-17T14:48:26.624Z,28.30
2023-09-17T14:50:54.056Z,28.30
2023-09-17T14:53:20.931Z,28.20
2023-09-17T14:55:49.008Z,28.10
2023-09-17T14:58:17.734Z,28.10
2023-09-17T15:00:44.513Z,28.10
2023-09-17T15:03:12.322Z,28.20
2023-09-17T15:05:40.669Z,28.20
2023-09-17T15:08:07.551Z,28.30
2023-09-17T15:10:34.446Z,28.30
2023-09-17T15:13:01.146Z,28.40
2023-09-17T15:15:27.942Z,28.50
2023-09-17T15:17:56.543Z,28.50
2023-09-17T15:20:23.486Z,28.60
2023-09-17T15:22:50.348Z,28.50
2023-09-17T15:25:17.106Z,28.50
2023-09-17T15:27:44.657Z,28.50
2023-09-17T15:30:12.365Z,28.40
2023-09-17T15:32:39.416Z,28.20
2023-09-17T15:35:06.565Z,28.10
2023-09-17T15:37:33.425Z,28.10
2023-09-17T15:40:00.149Z,27.90
2023-09-17T15:42:26.885Z,27.90
2023-09-17T15:44:53.525Z,27.80
2023-09-17T15:47:20.248Z,27.80
2023-09-17T15:49:49.610Z,27.70
2023-09-17T15:52:17.940Z,27.70
2023-09-17T15:54:44.658Z,27.70
2023-09-17T15:57:13.005Z,27.70
2023-09-17T15:59:39.919Z,27.50
2023-09-17T16:02:07.285Z,27.50
2023-09-17T16:04:36.210Z,27.60
2023-09-17T16:07:03.136Z,27.60
2023-09-17T16:09:29.895Z,27.70
2023-09-17T16:11:56.638Z,27.80
2023-09-17T16:14:23.418Z,27.90
2023-09-17T16:16:50.244Z,28.00
2023-09-17T16:19:16.959Z,28.00
2023-09-17T16:21:43.647Z,27.90
2023-09-17T16:24:10.499Z,27.80
2023-09-17T16:26:39.040Z,27.80
2023-09-17T16:29:07.337Z,27.70
2023-09-17T16:31:34.075Z,27.60
2023-09-17T16:34:00.836Z,27.40
2023-09-17T16:36:27.635Z,27.30
2023-09-17T16:38:54.307Z,27.00
2023-09-17T16:41:21.164Z,26.80
2023-09-17T16:43:48.024Z,26.50
2023-09-17T16:46:14.840Z,26.30
2023-09-17T16:48:41.741Z,26.10
2023-09-17T16:51:08.448Z,26.00
2023-09-17T16:53:35.180Z,25.80
2023-09-17T16:56:02.025Z,25.70
2023-09-17T16:58:29.760Z,25.50
2023-09-17T17:00:56.559Z,25.40
2023-09-17T17:03:25.115Z,25.40
2023-09-17T17:05:52.082Z,25.40
2023-09-17T17:08:19.265Z,25.40
2023-09-17T17:10:46.044Z,25.30
2023-09-17T17:13:13.247Z,25.30
2023-09-17T17:15:40.074Z,25.20
2023-09-17T17:18:09.219Z,25.10
2023-09-17T17:20:36.026Z,24.90
2023-09-17T17:23:03.072Z,24.90
2023-09-17T17:25:31.394Z,24.80
2023-09-17T17:27:58.216Z,24.70
2023-09-17T17:30:25.982Z,24.60
2023-09-17T17:32:52.743Z,24.50
2023-09-17T17:35:21.340Z,24.40
2023-09-17T17:37:48.134Z,24.30
2023-09-17T17:40:14.939Z,24.20
2023-09-17T17:42:41.659Z,24.10
2023-09-17T17:45:09.021Z,23.90
2023-09-17T17:47:35.795Z,23.80
2023-09-17T17:50:02.642Z,23.80
2023-09-17T17:52:29.596Z,23.70
2023-09-17T17:54:56.444Z,23.50
2023-09-17T17:57:24.437Z,23.40
2023-09-17T17:59:51.310Z,23.30
2023-09-17T18:02:18.495Z,23.20
2023-09-17T18:04:45.518Z,23.20
2023-09-17T18:07:14.926Z,23.10
2023-09-17T18:09:42.897Z,22.90
2023-09-17T18:12:10.313Z,22.80
2023-09-17T18:14:37.502Z,22.80
2023-09-17T18:17:05.380Z,22.70
2023-09-17T18:19:32.294Z,22.60
2023-09-17T18:21:59.002Z,22.50
2023-09-17T18:24:28.458Z,22.40
2023-09-17T18:26:55.468Z,22.40
2023-09-17T18:29:27.671Z,22.30
2023-09-17T18:31:58.313Z,22.20
2023-09-17T18:34:25.167Z,22.10
2023-09-17T18:36:51.874Z,22.10
2023-09-17T18:39:20.266Z,21.90
2023-09-17T18:41:48.016Z,21.90
2023-09-17T18:44:15.331Z,21.80
2023-09-17T18:46:42.267Z,21.70
2023-09-17T18:49:10.502Z,21.70
2023-09-17T18:51:39.293Z,21.50
2023-09-17T18:54:06.255Z,21.50
2023-09-17T18:56:35.288Z,21.40
2023-09-17T18:59:02.289Z,21.30
2023-09-17T19:01:30.583Z,21.20
2023-09-17T19:03:58.004Z,21.10
2023-09-17T19:06:25.094Z,21.10
2023-09-17T19:08:51.918Z,21.00
2023-09-17T19:11:18.857Z,20.90
2023-09-17T19:13:45.719Z,20.80
2023-09-17T19:16:12.520Z,20.70
2023-09-17T19:18:39.748Z,20.70
2023-09-17T19:21:14.352Z,20.70
2023-09-17T19:23:42.991Z,20.60
2023-09-17T19:26:11.319Z,20.60
2023-09-17T19:28:42.249Z,20.60
2023-09-17T19:31:10.179Z,20.60
2023-09-17T19:33:40.225Z,20.50
2023-09-17T19:36:07.030Z,20.60
2023-09-17T19:38:35.062Z,20.50
2023-09-17T19:41:03.225Z,20.50
2023-09-17T19:43:30.102Z,20.50
2023-09-17T19:45:57.944Z,20.40
2023-09-17T19:48:25.236Z,20.50
2023-09-17T19:50:52.028Z,20.40
2023-09-17T19:53:21.992Z,20.40
2023-09-17T19:55:48.878Z,20.30
2023-09-17T19:58:15.826Z,20.30
2023-09-17T20:00:43.011Z,20.30
2023-09-17T20:03:10.360Z,20.20
2023-09-17T20:05:37.580Z,20.20
2023-09-17T20:08:08.723Z,20.20
2023-09-17T20:10:38.061Z,20.20
2023-09-17T20:13:05.507Z,20.20
2023-09-17T20:15:32.394Z,20.10
2023-09-17T20:17:59.466Z,20.10
2023-09-17T20:20:27.129Z,20.10
2023-09-17T20:22:54.105Z,20.10
2023-09-17T20:25:22.699Z,20.10
2023-09-17T20:27:55.522Z,20.00
2023-09-17T20:30:22.377Z,20.00
2023-09-17T20:32:49.247Z,20.00
2023-09-17T20:35:16.194Z,20.00
2023-09-17T20:37:42.936Z,20.00
2023-09-17T20:40:11.098Z,19.90
2023-09-17T20:42:38.336Z,19.90
2023-09-17T20:45:05.752Z,19.80
2023-09-17T20:47:32.598Z,19.80
2023-09-17T20:49:59.470Z,19.70
2023-09-17T20:52:26.217Z,19.70
2023-09-17T20:54:52.939Z,19.60
2023-09-17T20:57:21.339Z,19.60
2023-09-17T20:59:48.298Z,19.60
2023-09-17T21:02:15.141Z,19.50
2023-09-17T21:04:45.361Z,19.50
2023-09-17T21:07:12.226Z,19.50
2023-09-17T21:09:39.136Z,19.50
2023-09-17T21:12:06.266Z,19.50
2023-09-17T21:14:33.047Z,19.50
2023-09-17T21:16:59.842Z,19.60
2023-09-17T21:19:26.871Z,19.60
2023-09-17T21:21:53.601Z,19.60
2023-09-17T21:24:20.317Z,19.60
2023-09-17T21:26:47.086Z,19.60
2023-09-17T21:29:14.806Z,19.60
2023-09-17T21:31:42.113Z,19.60
2023-09-17T21:34:08.981Z,19.60
2023-09-17T21:36:35.760Z,19.60
2023-09-17T21:39:03.645Z,19.60
2023-09-17T21:41:31.819Z,19.60
2023-09-17T21:44:00.233Z,19.50
2023-09-17T21:46:29.634Z,19.50
2023-09-17T21:48:59.414Z,19.50
2023-09-17T21:51:26.763Z,19.60
2023-09-17T21:53:53.457Z,19.50
2023-09-17T21:56:20.855Z,19.50
2023-09-17T21:58:47.550Z,19.50
2023-09-17T22:01:14.364Z,19.50
2023-09-17T22:03:42.171Z,19.50
2023-09-17T22:06:09.339Z,19.50
2023-09-17T22:08:36.144Z,19.50
2023-09-17T22:11:06.581Z,19.50
2023-09-17T22:13:34.786Z,19.50
2023-09-17T22:16:01.703Z,19.40
2023-09-17T22:18:28.516Z,19.40
2023-09-17T22:21:05.519Z,19.30
2023-09-17T22:23:32.394Z,19.30
2023-09-17T22:26:00.173Z,19.20
2023-09-17T22:28:27.555Z,19.30
2023-09-17T22:30:54.304Z,19.30
2023-09-17T22:33:20.954Z,19.20
2023-09-17T22:35:47.896Z,19.20
2023-09-17T22:38:14.675Z,19.30
2023-09-17T22:40:42.571Z,19.30
2023-09-17T22:43:09.353Z,19.20
2023-09-17T22:45:39.740Z,19.20
2023-09-17T22:48:06.986Z,19.20
2023-09-17T22:50:33.876Z,19.30
2023-09-17T22:53:00.667Z,19.30
2023-09-17T22:55:27.431Z,19.30
2023-09-17T22:57:54.108Z,19.30
2023-09-17T23:00:22.279Z,19.30
2023-09-17T23:02:49.589Z,19.30
2023-09-17T23:05:18.176Z,19.30
2023-09-17T23:07:45.000Z,19.30
2023-09-17T23:10:11.735Z,19.30
2023-09-17T23:12:38.471Z,19.40
2023-09-17T23:15:05.516Z,19.50
2023-09-17T23:17:32.449Z,19.50
2023-09-17T23:19:59.294Z,19.50
2023-09-17T23:22:26.151Z,19.50
2023-09-17T23:24:54.022Z,19.50
2023-09-17T23:27:20.723Z,19.50
2023-09-17T23:29:49.373Z,19.50
2023-09-17T23:32:16.370Z,19.50
2023-09-17T23:34:43.156Z,19.50
2023-09-17T23:37:12.824Z,19.50
2023-09-17T23:39:44.175Z,19.50
2023-09-17T23:42:12.716Z,19.50
2023-09-17T23:44:39.557Z,19.50
2023-09-17T23:47:06.464Z,19.50
2023-09-17T23:49:33.602Z,19.50
2023-09-17T23:52:00.278Z,19.60
2023-09-17T23:54:26.971Z,19.60
2023-09-17T23:56:53.653Z,19.60
2023-09-17T23:59:20.503Z,19.60
